sensor_id;sensor_type;location;lat;lon;timestamp;P1;durP1;ratioP1;P2;durP2;ratioP2
68872;SDS011;55907;50.806;12.882;2022-09-24T00:02:15;5.2;;;3.9;;
68872;SDS011;55907;50.806;12.882;2022-09-24T00:05:16;5.3;;;4.0;;
68872;SDS011;55907;50.806;12.882;2022-09-24T00:08:18;5.5;;;4.0;;
68872;SDS011;55907;50.806;12.882;2022-09-24T00:11:20;5.2;;;3.7;;
68872;SDS011;55907;50.806;12.882;2022-09-24T00:14:21;7.4;;;4.1;;
68872;SDS011;55907;50.806;12.882;2022-09-24T00:17:22;5.6;;;3.6;;
68872;SDS011;55907;50.806;12.882;2022-09-24T00:20:24;4.8;;;3.6;;
68872;SDS011;55907;50.806;12.882;2022-09-24T00:23:26;5.7;;;3.5;;
68872;SDS011;55907;50.806;12.882;2022-09-24T00:26:27;5.6;;;4.0;;
68872;SDS011;55907;50.806;12.882;2022-09-24T00:29:29;5.8;;;4.0;;
68872;SDS011;55907;50.806;12.882;2022-09-24T00:32:30;25.2;;;15.6;;
68872;SDS011;55907;50.806;12.882;2022-09-24T00:35:32;7.4;;;5.5;;
68872;SDS011;55907;50.806;12.882;2022-09-24T00:38:33;5.8;;;4.2;;
68872;SDS011;55907;50.806;12.882;2022-09-24T00:41:35;7.8;;;4.3;;
68872;SDS011;55907;50.806;12.882;2022-09-24T00:44:42;4.6;;;3.8;;
68872;SDS011;55907;50.806;12.882;2022-09-24T00:47:38;4.9;;;3.9;;
68872;SDS011;55907;50.806;12.882;2022-09-24T00:53:41;5.6;;;4.2;;
68872;SDS011;55907;50.806;12.882;2022-09-24T00:56:42;5.5;;;4.0;;
68872;SDS011;55907;50.806;12.882;2022-09-24T00:59:44;5.3;;;4.0;;
68872;SDS011;55907;50.806;12.882;2022-09-24T01:02:46;4.5;;;3.6;;
68872;SDS011;55907;50.806;12.882;2022-09-24T01:05:47;4.7;;;3.7;;
68872;SDS011;55907;50.806;12.882;2022-09-24T01:08:49;5.6;;;3.7;;
68872;SDS011;55907;50.806;12.882;2022-09-24T01:11:52;4.4;;;3.4;;
68872;SDS011;55907;50.806;12.882;2022-09-24T01:14:55;4.6;;;3.8;;
68872;SDS011;55907;50.806;12.882;2022-09-24T01:17:55;4.7;;;3.9;;
68872;SDS011;55907;50.806;12.882;2022-09-24T01:21:02;5.4;;;3.7;;
68872;SDS011;55907;50.806;12.882;2022-09-24T01:24:00;4.6;;;3.8;;
68872;SDS011;55907;50.806;12.882;2022-09-24T01:27:00;4.3;;;3.9;;
68872;SDS011;55907;50.806;12.882;2022-09-24T01:30:01;5.7;;;5.2;;
68872;SDS011;55907;50.806;12.882;2022-09-24T01:36:03;6.7;;;4.7;;
68872;SDS011;55907;50.806;12.882;2022-09-24T01:39:04;7.6;;;6.3;;
68872;SDS011;55907;50.806;12.882;2022-09-24T01:42:05;7.3;;;6.2;;
68872;SDS011;55907;50.806;12.882;2022-09-24T01:45:07;6.6;;;5.9;;
68872;SDS011;55907;50.806;12.882;2022-09-24T01:48:09;6.5;;;5.9;;
68872;SDS011;55907;50.806;12.882;2022-09-24T01:51:11;6.1;;;5.5;;
68872;SDS011;55907;50.806;12.882;2022-09-24T01:54:15;7.4;;;6.7;;
68872;SDS011;55907;50.806;12.882;2022-09-24T01:57:14;7.8;;;7.1;;
68872;SDS011;55907;50.806;12.882;2022-09-24T02:00:16;6.9;;;6.3;;
68872;SDS011;55907;50.806;12.882;2022-09-24T02:03:17;6.8;;;6.2;;
68872;SDS011;55907;50.806;12.882;2022-09-24T02:06:19;6.4;;;5.8;;
68872;SDS011;55907;50.806;12.882;2022-09-24T02:09:27;6.9;;;6.2;;
68872;SDS011;55907;50.806;12.882;2022-09-24T02:15:23;7.4;;;6.8;;
68872;SDS011;55907;50.806;12.882;2022-09-24T02:18:24;7.0;;;6.4;;
68872;SDS011;55907;50.806;12.882;2022-09-24T02:21:25;6.6;;;6.0;;
68872;SDS011;55907;50.806;12.882;2022-09-24T02:24:29;7.1;;;6.5;;
68872;SDS011;55907;50.806;12.882;2022-09-24T02:27:29;6.7;;;6.1;;
68872;SDS011;55907;50.806;12.882;2022-09-24T02:30:31;6.6;;;5.4;;
68872;SDS011;55907;50.806;12.882;2022-09-24T02:33:32;7.1;;;6.5;;
68872;SDS011;55907;50.806;12.882;2022-09-24T02:36:33;6.4;;;5.8;;
68872;SDS011;55907;50.806;12.882;2022-09-24T02:39:35;5.5;;;4.8;;
68872;SDS011;55907;50.806;12.882;2022-09-24T02:42:37;5.7;;;5.2;;
68872;SDS011;55907;50.806;12.882;2022-09-24T02:45:38;4.7;;;4.2;;
68872;SDS011;55907;50.806;12.882;2022-09-24T02:48:39;5.1;;;4.3;;
68872;SDS011;55907;50.806;12.882;2022-09-24T02:51:41;6.1;;;4.7;;
68872;SDS011;55907;50.806;12.882;2022-09-24T02:54:42;4.8;;;3.7;;
68872;SDS011;55907;50.806;12.882;2022-09-24T02:57:44;5.4;;;3.8;;
68872;SDS011;55907;50.806;12.882;2022-09-24T03:00:45;4.6;;;3.6;;
68872;SDS011;55907;50.806;12.882;2022-09-24T03:03:47;4.9;;;3.7;;
68872;SDS011;55907;50.806;12.882;2022-09-24T03:06:49;4.7;;;3.2;;
68872;SDS011;55907;50.806;12.882;2022-09-24T03:09:50;5.2;;;3.4;;
68872;SDS011;55907;50.806;12.882;2022-09-24T03:12:52;11.3;;;8.2;;
68872;SDS011;55907;50.806;12.882;2022-09-24T03:15:53;13.5;;;9.7;;
68872;SDS011;55907;50.806;12.882;2022-09-24T03:18:55;8.4;;;6.5;;
68872;SDS011;55907;50.806;12.882;2022-09-24T03:21:56;6.3;;;4.0;;
68872;SDS011;55907;50.806;12.882;2022-09-24T03:24:58;4.7;;;3.8;;
68872;SDS011;55907;50.806;12.882;2022-09-24T03:31:01;6.0;;;3.5;;
68872;SDS011;55907;50.806;12.882;2022-09-24T03:34:02;4.2;;;3.6;;
68872;SDS011;55907;50.806;12.882;2022-09-24T03:37:04;5.4;;;3.8;;
68872;SDS011;55907;50.806;12.882;2022-09-24T03:40:06;4.7;;;4.0;;
68872;SDS011;55907;50.806;12.882;2022-09-24T03:43:07;5.1;;;3.9;;
68872;SDS011;55907;50.806;12.882;2022-09-24T03:46:09;4.5;;;3.7;;
68872;SDS011;55907;50.806;12.882;2022-09-24T03:49:10;4.4;;;3.9;;
68872;SDS011;55907;50.806;12.882;2022-09-24T03:52:12;5.3;;;4.1;;
68872;SDS011;55907;50.806;12.882;2022-09-24T03:55:13;5.1;;;4.2;;
68872;SDS011;55907;50.806;12.882;2022-09-24T03:58:15;5.3;;;4.5;;
68872;SDS011;55907;50.806;12.882;2022-09-24T04:01:16;5.5;;;4.4;;
68872;SDS011;55907;50.806;12.882;2022-09-24T04:04:18;5.1;;;4.3;;
68872;SDS011;55907;50.806;12.882;2022-09-24T04:07:19;5.0;;;4.5;;
68872;SDS011;55907;50.806;12.882;2022-09-24T04:10:21;4.8;;;4.3;;
68872;SDS011;55907;50.806;12.882;2022-09-24T04:13:22;5.2;;;4.7;;
68872;SDS011;55907;50.806;12.882;2022-09-24T04:16:24;6.5;;;4.6;;
68872;SDS011;55907;50.806;12.882;2022-09-24T04:19:25;4.5;;;4.1;;
68872;SDS011;55907;50.806;12.882;2022-09-24T04:22:27;4.8;;;4.3;;
68872;SDS011;55907;50.806;12.882;2022-09-24T04:25:29;5.5;;;3.9;;
68872;SDS011;55907;50.806;12.882;2022-09-24T04:28:30;4.6;;;3.8;;
68872;SDS011;55907;50.806;12.882;2022-09-24T04:31:31;4.8;;;3.7;;
68872;SDS011;55907;50.806;12.882;2022-09-24T04:34:33;5.7;;;3.7;;
68872;SDS011;55907;50.806;12.882;2022-09-24T04:37:35;4.6;;;3.7;;
68872;SDS011;55907;50.806;12.882;2022-09-24T04:40:36;4.8;;;3.7;;
68872;SDS011;55907;50.806;12.882;2022-09-24T04:43:38;5.1;;;3.4;;
68872;SDS011;55907;50.806;12.882;2022-09-24T04:46:39;4.7;;;3.5;;
68872;SDS011;55907;50.806;12.882;2022-09-24T04:49:40;4.9;;;3.6;;
68872;SDS011;55907;50.806;12.882;2022-09-24T04:52:42;4.3;;;3.6;;
68872;SDS011;55907;50.806;12.882;2022-09-24T04:55:43;4.6;;;3.5;;
68872;SDS011;55907;50.806;12.882;2022-09-24T04:58:48;4.7;;;3.3;;
68872;SDS011;55907;50.806;12.882;2022-09-24T05:01:47;5.4;;;3.8;;
68872;SDS011;55907;50.806;12.882;2022-09-24T05:04:48;5.8;;;4.3;;
68872;SDS011;55907;50.806;12.882;2022-09-24T05:07:50;5.9;;;3.8;;
68872;SDS011;55907;50.806;12.882;2022-09-24T05:10:51;4.5;;;3.4;;
68872;SDS011;55907;50.806;12.882;2022-09-24T05:13:53;4.9;;;3.5;;
68872;SDS011;55907;50.806;12.882;2022-09-24T05:16:54;3.8;;;3.3;;
68872;SDS011;55907;50.806;12.882;2022-09-24T05:19:56;3.9;;;3.4;;
68872;SDS011;55907;50.806;12.882;2022-09-24T05:22:57;3.7;;;3.3;;
68872;SDS011;55907;50.806;12.882;2022-09-24T05:25:59;3.9;;;3.3;;
68872;SDS011;55907;50.806;12.882;2022-09-24T05:29:00;3.7;;;3.3;;
68872;SDS011;55907;50.806;12.882;2022-09-24T05:32:03;4.3;;;3.2;;
68872;SDS011;55907;50.806;12.882;2022-09-24T05:35:04;3.4;;;3.1;;
68872;SDS011;55907;50.806;12.882;2022-09-24T05:38:05;5.3;;;3.5;;
68872;SDS011;55907;50.806;12.882;2022-09-24T05:41:06;4.6;;;3.2;;
68872;SDS011;55907;50.806;12.882;2022-09-24T05:44:08;4.4;;;3.0;;
68872;SDS011;55907;50.806;12.882;2022-09-24T05:47:09;3.7;;;3.0;;
68872;SDS011;55907;50.806;12.882;2022-09-24T05:50:11;4.4;;;3.0;;
68872;SDS011;55907;50.806;12.882;2022-09-24T05:53:12;3.9;;;3.0;;
68872;SDS011;55907;50.806;12.882;2022-09-24T05:56:14;4.5;;;3.1;;
68872;SDS011;55907;50.806;12.882;2022-09-24T05:59:16;3.4;;;2.8;;
68872;SDS011;55907;50.806;12.882;2022-09-24T06:02:17;4.6;;;3.1;;
68872;SDS011;55907;50.806;12.882;2022-09-24T06:05:19;7.5;;;3.3;;
68872;SDS011;55907;50.806;12.882;2022-09-24T06:08:20;4.1;;;3.1;;
68872;SDS011;55907;50.806;12.882;2022-09-24T06:11:22;4.2;;;3.0;;
68872;SDS011;55907;50.806;12.882;2022-09-24T06:14:23;4.3;;;3.3;;
68872;SDS011;55907;50.806;12.882;2022-09-24T06:17:25;5.0;;;3.0;;
68872;SDS011;55907;50.806;12.882;2022-09-24T06:20:26;4.1;;;3.1;;
68872;SDS011;55907;50.806;12.882;2022-09-24T06:23:28;4.5;;;2.8;;
68872;SDS011;55907;50.806;12.882;2022-09-24T06:26:29;4.1;;;2.9;;
68872;SDS011;55907;50.806;12.882;2022-09-24T06:29:31;4.4;;;3.2;;
68872;SDS011;55907;50.806;12.882;2022-09-24T06:32:32;5.4;;;3.2;;
68872;SDS011;55907;50.806;12.882;2022-09-24T06:35:34;9.8;;;6.5;;
68872;SDS011;55907;50.806;12.882;2022-09-24T06:38:35;5.7;;;4.0;;
68872;SDS011;55907;50.806;12.882;2022-09-24T06:41:37;6.2;;;3.3;;
68872;SDS011;55907;50.806;12.882;2022-09-24T06:44:38;4.7;;;3.3;;
68872;SDS011;55907;50.806;12.882;2022-09-24T06:47:40;5.7;;;3.1;;
68872;SDS011;55907;50.806;12.882;2022-09-24T06:50:42;4.4;;;3.1;;
68872;SDS011;55907;50.806;12.882;2022-09-24T06:53:43;3.2;;;2.9;;
68872;SDS011;55907;50.806;12.882;2022-09-24T06:56:44;3.7;;;3.1;;
68872;SDS011;55907;50.806;12.882;2022-09-24T06:59:46;5.3;;;3.2;;
68872;SDS011;55907;50.806;12.882;2022-09-24T07:02:49;3.4;;;2.8;;
68872;SDS011;55907;50.806;12.882;2022-09-24T07:05:49;3.3;;;3.0;;
68872;SDS011;55907;50.806;12.882;2022-09-24T07:08:51;4.4;;;3.3;;
68872;SDS011;55907;50.806;12.882;2022-09-24T07:11:52;5.1;;;3.1;;
68872;SDS011;55907;50.806;12.882;2022-09-24T07:14:54;6.8;;;3.4;;
68872;SDS011;55907;50.806;12.882;2022-09-24T07:17:55;4.6;;;3.5;;
68872;SDS011;55907;50.806;12.882;2022-09-24T07:23:58;14.6;;;9.7;;
68872;SDS011;55907;50.806;12.882;2022-09-24T07:26:59;10.6;;;7.9;;
68872;SDS011;55907;50.806;12.882;2022-09-24T07:30:01;7.0;;;4.8;;
68872;SDS011;55907;50.806;12.882;2022-09-24T07:33:03;4.9;;;3.7;;
68872;SDS011;55907;50.806;12.882;2022-09-24T07:36:04;5.5;;;4.0;;
68872;SDS011;55907;50.806;12.882;2022-09-24T07:39:05;4.3;;;3.4;;
68872;SDS011;55907;50.806;12.882;2022-09-24T07:42:07;5.9;;;3.5;;
68872;SDS011;55907;50.806;12.882;2022-09-24T07:45:09;4.4;;;3.6;;
68872;SDS011;55907;50.806;12.882;2022-09-24T07:48:10;5.8;;;3.7;;
68872;SDS011;55907;50.806;12.882;2022-09-24T07:51:11;6.1;;;3.9;;
68872;SDS011;55907;50.806;12.882;2022-09-24T07:54:13;5.9;;;4.0;;
68872;SDS011;55907;50.806;12.882;2022-09-24T07:57:14;5.3;;;4.0;;
68872;SDS011;55907;50.806;12.882;2022-09-24T08:00:16;5.1;;;4.1;;
68872;SDS011;55907;50.806;12.882;2022-09-24T08:03:17;6.1;;;4.8;;
68872;SDS011;55907;50.806;12.882;2022-09-24T08:06:19;6.7;;;4.8;;
68872;SDS011;55907;50.806;12.882;2022-09-24T08:09:20;7.6;;;5.4;;
68872;SDS011;55907;50.806;12.882;2022-09-24T08:12:23;8.2;;;5.7;;
68872;SDS011;55907;50.806;12.882;2022-09-24T08:15:23;7.2;;;4.5;;
68872;SDS011;55907;50.806;12.882;2022-09-24T08:18:25;5.6;;;4.4;;
68872;SDS011;55907;50.806;12.882;2022-09-24T08:21:26;7.1;;;3.8;;
68872;SDS011;55907;50.806;12.882;2022-09-24T08:24:28;5.5;;;3.7;;
68872;SDS011;55907;50.806;12.882;2022-09-24T08:27:29;5.3;;;3.9;;
68872;SDS011;55907;50.806;12.882;2022-09-24T08:30:31;5.2;;;3.6;;
68872;SDS011;55907;50.806;12.882;2022-09-24T08:33:32;4.9;;;3.9;;
68872;SDS011;55907;50.806;12.882;2022-09-24T08:36:33;4.6;;;3.7;;
68872;SDS011;55907;50.806;12.882;2022-09-24T08:39:35;5.1;;;3.9;;
68872;SDS011;55907;50.806;12.882;2022-09-24T08:42:39;6.5;;;4.0;;
68872;SDS011;55907;50.806;12.882;2022-09-24T08:45:39;5.1;;;3.8;;
68872;SDS011;55907;50.806;12.882;2022-09-24T08:48:40;5.7;;;3.5;;
68872;SDS011;55907;50.806;12.882;2022-09-24T08:51:42;6.5;;;3.7;;
68872;SDS011;55907;50.806;12.882;2022-09-24T08:54:42;5.8;;;4.8;;
68872;SDS011;55907;50.806;12.882;2022-09-24T08:57:46;5.5;;;4.2;;
68872;SDS011;55907;50.806;12.882;2022-09-24T09:00:46;6.2;;;4.6;;
68872;SDS011;55907;50.806;12.882;2022-09-24T09:03:48;7.0;;;4.2;;
68872;SDS011;55907;50.806;12.882;2022-09-24T09:06:51;7.7;;;6.3;;
68872;SDS011;55907;50.806;12.882;2022-09-24T09:09:51;6.8;;;5.4;;
68872;SDS011;55907;50.806;12.882;2022-09-24T09:12:51;5.0;;;3.5;;
68872;SDS011;55907;50.806;12.882;2022-09-24T09:15:53;5.1;;;3.9;;
68872;SDS011;55907;50.806;12.882;2022-09-24T09:18:54;3.8;;;3.5;;
68872;SDS011;55907;50.806;12.882;2022-09-24T09:24:57;4.5;;;3.1;;
68872;SDS011;55907;50.806;12.882;2022-09-24T09:27:59;3.5;;;2.9;;
68872;SDS011;55907;50.806;12.882;2022-09-24T09:31:00;3.6;;;3.3;;
68872;SDS011;55907;50.806;12.882;2022-09-24T09:34:03;3.4;;;3.1;;
68872;SDS011;55907;50.806;12.882;2022-09-24T09:37:05;3.5;;;3.2;;
68872;SDS011;55907;50.806;12.882;2022-09-24T09:40:06;3.7;;;3.2;;
68872;SDS011;55907;50.806;12.882;2022-09-24T09:43:06;4.0;;;3.7;;
68872;SDS011;55907;50.806;12.882;2022-09-24T09:46:08;4.2;;;3.8;;
68872;SDS011;55907;50.806;12.882;2022-09-24T09:49:06;3.6;;;3.3;;
68872;SDS011;55907;50.806;12.882;2022-09-24T09:52:10;5.3;;;3.9;;
68872;SDS011;55907;50.806;12.882;2022-09-24T09:55:18;3.6;;;2.9;;
68872;SDS011;55907;50.806;12.882;2022-09-24T09:58:16;4.2;;;2.9;;
68872;SDS011;55907;50.806;12.882;2022-09-24T10:01:12;4.1;;;3.3;;
68872;SDS011;55907;50.806;12.882;2022-09-24T10:04:23;5.1;;;3.9;;
68872;SDS011;55907;50.806;12.882;2022-09-24T10:07:15;4.9;;;4.3;;
68872;SDS011;55907;50.806;12.882;2022-09-24T10:10:17;5.0;;;4.5;;
68872;SDS011;55907;50.806;12.882;2022-09-24T10:13:17;3.7;;;3.0;;
68872;SDS011;55907;50.806;12.882;2022-09-24T10:16:19;3.3;;;2.9;;
68872;SDS011;55907;50.806;12.882;2022-09-24T10:19:21;3.7;;;2.8;;
68872;SDS011;55907;50.806;12.882;2022-09-24T10:22:22;4.9;;;2.7;;
68872;SDS011;55907;50.806;12.882;2022-09-24T10:25:24;3.5;;;2.5;;
68872;SDS011;55907;50.806;12.882;2022-09-24T10:28:24;5.3;;;4.0;;
68872;SDS011;55907;50.806;12.882;2022-09-24T10:31:27;3.9;;;2.8;;
68872;SDS011;55907;50.806;12.882;2022-09-24T10:34:27;3.5;;;3.2;;
68872;SDS011;55907;50.806;12.882;2022-09-24T10:37:29;5.2;;;3.6;;
68872;SDS011;55907;50.806;12.882;2022-09-24T10:40:36;3.5;;;3.0;;
68872;SDS011;55907;50.806;12.882;2022-09-24T10:43:31;4.7;;;3.0;;
68872;SDS011;55907;50.806;12.882;2022-09-24T10:46:38;4.1;;;2.9;;
68872;SDS011;55907;50.806;12.882;2022-09-24T10:49:39;3.7;;;2.9;;
68872;SDS011;55907;50.806;12.882;2022-09-24T10:52:39;5.8;;;3.0;;
68872;SDS011;55907;50.806;12.882;2022-09-24T10:55:40;4.6;;;2.6;;
68872;SDS011;55907;50.806;12.882;2022-09-24T11:01:41;3.7;;;2.4;;
68872;SDS011;55907;50.806;12.882;2022-09-24T11:04:43;3.8;;;2.5;;
68872;SDS011;55907;50.806;12.882;2022-09-24T11:07:48;4.6;;;3.3;;
68872;SDS011;55907;50.806;12.882;2022-09-24T11:10:48;8.4;;;6.4;;
68872;SDS011;55907;50.806;12.882;2022-09-24T11:13:47;7.8;;;5.7;;
68872;SDS011;55907;50.806;12.882;2022-09-24T11:19:52;3.5;;;2.8;;
68872;SDS011;55907;50.806;12.882;2022-09-24T11:22:53;4.4;;;2.8;;
68872;SDS011;55907;50.806;12.882;2022-09-24T11:25:53;4.7;;;2.8;;
68872;SDS011;55907;50.806;12.882;2022-09-24T11:28:57;4.4;;;2.9;;
68872;SDS011;55907;50.806;12.882;2022-09-24T11:31:55;3.3;;;2.3;;
68872;SDS011;55907;50.806;12.882;2022-09-24T11:34:58;3.6;;;2.8;;
68872;SDS011;55907;50.806;12.882;2022-09-24T11:37:58;4.5;;;2.8;;
68872;SDS011;55907;50.806;12.882;2022-09-24T11:41:02;2.8;;;2.3;;
68872;SDS011;55907;50.806;12.882;2022-09-24T11:44:03;4.1;;;2.3;;
68872;SDS011;55907;50.806;12.882;2022-09-24T11:47:04;2.8;;;2.4;;
68872;SDS011;55907;50.806;12.882;2022-09-24T11:50:05;6.1;;;2.8;;
68872;SDS011;55907;50.806;12.882;2022-09-24T11:53:05;8.8;;;6.9;;
68872;SDS011;55907;50.806;12.882;2022-09-24T11:56:06;5.1;;;3.3;;
68872;SDS011;55907;50.806;12.882;2022-09-24T11:59:10;4.8;;;2.8;;
68872;SDS011;55907;50.806;12.882;2022-09-24T12:02:11;3.3;;;2.6;;
68872;SDS011;55907;50.806;12.882;2022-09-24T12:05:11;4.2;;;2.9;;
68872;SDS011;55907;50.806;12.882;2022-09-24T12:08:11;5.4;;;2.7;;
68872;SDS011;55907;50.806;12.882;2022-09-24T12:11:12;3.8;;;2.7;;
68872;SDS011;55907;50.806;12.882;2022-09-24T12:14:16;5.3;;;2.9;;
68872;SDS011;55907;50.806;12.882;2022-09-24T12:17:16;4.6;;;3.1;;
68872;SDS011;55907;50.806;12.882;2022-09-24T12:20:17;6.6;;;3.7;;
68872;SDS011;55907;50.806;12.882;2022-09-24T12:23:18;4.5;;;3.0;;
68872;SDS011;55907;50.806;12.882;2022-09-24T12:26:19;4.0;;;2.9;;
68872;SDS011;55907;50.806;12.882;2022-09-24T12:29:27;4.7;;;3.0;;
68872;SDS011;55907;50.806;12.882;2022-09-24T12:32:23;3.3;;;3.0;;
68872;SDS011;55907;50.806;12.882;2022-09-24T12:35:28;5.0;;;2.9;;
68872;SDS011;55907;50.806;12.882;2022-09-24T12:38:25;4.3;;;3.2;;
68872;SDS011;55907;50.806;12.882;2022-09-24T12:41:27;6.0;;;4.3;;
68872;SDS011;55907;50.806;12.882;2022-09-24T12:44:29;4.8;;;3.7;;
68872;SDS011;55907;50.806;12.882;2022-09-24T12:47:29;4.6;;;3.3;;
68872;SDS011;55907;50.806;12.882;2022-09-24T12:50:31;3.3;;;2.7;;
68872;SDS011;55907;50.806;12.882;2022-09-24T12:53:32;4.8;;;3.1;;
68872;SDS011;55907;50.806;12.882;2022-09-24T12:56:33;5.0;;;3.2;;
68872;SDS011;55907;50.806;12.882;2022-09-24T12:59:44;5.7;;;3.6;;
68872;SDS011;55907;50.806;12.882;2022-09-24T13:02:42;6.3;;;3.5;;
68872;SDS011;55907;50.806;12.882;2022-09-24T13:05:45;4.5;;;3.3;;
68872;SDS011;55907;50.806;12.882;2022-09-24T13:08:39;5.7;;;3.4;;
68872;SDS011;55907;50.806;12.882;2022-09-24T13:11:40;5.1;;;3.3;;
68872;SDS011;55907;50.806;12.882;2022-09-24T13:14:45;6.1;;;3.4;;
68872;SDS011;55907;50.806;12.882;2022-09-24T13:17:43;5.5;;;4.4;;
68872;SDS011;55907;50.806;12.882;2022-09-24T13:23:46;4.9;;;3.5;;
68872;SDS011;55907;50.806;12.882;2022-09-24T13:26:47;4.8;;;3.4;;
68872;SDS011;55907;50.806;12.882;2022-09-24T13:29:52;3.5;;;3.0;;
68872;SDS011;55907;50.806;12.882;2022-09-24T13:32:53;4.6;;;3.5;;
68872;SDS011;55907;50.806;12.882;2022-09-24T13:35:58;5.0;;;3.1;;
68872;SDS011;55907;50.806;12.882;2022-09-24T13:38:54;6.3;;;3.8;;
68872;SDS011;55907;50.806;12.882;2022-09-24T13:41:56;5.3;;;3.9;;
68872;SDS011;55907;50.806;12.882;2022-09-24T13:44:56;7.0;;;3.2;;
68872;SDS011;55907;50.806;12.882;2022-09-24T13:47:57;5.4;;;3.6;;
68872;SDS011;55907;50.806;12.882;2022-09-24T13:50:58;4.9;;;3.4;;
68872;SDS011;55907;50.806;12.882;2022-09-24T13:54:01;4.3;;;3.0;;
68872;SDS011;55907;50.806;12.882;2022-09-24T13:57:05;4.5;;;3.3;;
68872;SDS011;55907;50.806;12.882;2022-09-24T14:00:11;5.2;;;2.9;;
68872;SDS011;55907;50.806;12.882;2022-09-24T14:06:09;4.0;;;2.7;;
68872;SDS011;55907;50.806;12.882;2022-09-24T14:09:13;3.3;;;2.7;;
68872;SDS011;55907;50.806;12.882;2022-09-24T14:12:12;4.1;;;2.8;;
68872;SDS011;55907;50.806;12.882;2022-09-24T14:15:12;3.3;;;2.8;;
68872;SDS011;55907;50.806;12.882;2022-09-24T14:18:13;4.5;;;2.8;;
68872;SDS011;55907;50.806;12.882;2022-09-24T14:21:13;3.6;;;2.8;;
68872;SDS011;55907;50.806;12.882;2022-09-24T14:24:16;5.6;;;3.3;;
68872;SDS011;55907;50.806;12.882;2022-09-24T14:27:16;4.9;;;2.8;;
68872;SDS011;55907;50.806;12.882;2022-09-24T14:33:19;3.9;;;3.3;;
68872;SDS011;55907;50.806;12.882;2022-09-24T14:36:20;6.3;;;4.0;;
68872;SDS011;55907;50.806;12.882;2022-09-24T14:39:21;6.2;;;2.8;;
68872;SDS011;55907;50.806;12.882;2022-09-24T14:42:23;4.3;;;3.0;;
68872;SDS011;55907;50.806;12.882;2022-09-24T14:45:25;5.5;;;3.0;;
68872;SDS011;55907;50.806;12.882;2022-09-24T14:48:26;3.4;;;2.7;;
68872;SDS011;55907;50.806;12.882;2022-09-24T14:51:28;4.3;;;2.9;;
68872;SDS011;55907;50.806;12.882;2022-09-24T14:54:29;3.6;;;2.9;;
68872;SDS011;55907;50.806;12.882;2022-09-24T14:57:34;4.6;;;3.2;;
68872;SDS011;55907;50.806;12.882;2022-09-24T15:00:34;3.7;;;3.0;;
68872;SDS011;55907;50.806;12.882;2022-09-24T15:03:36;5.9;;;3.5;;
68872;SDS011;55907;50.806;12.882;2022-09-24T15:06:34;5.3;;;2.9;;
68872;SDS011;55907;50.806;12.882;2022-09-24T15:09:35;4.7;;;3.0;;
68872;SDS011;55907;50.806;12.882;2022-09-24T15:12:37;4.8;;;2.8;;
68872;SDS011;55907;50.806;12.882;2022-09-24T15:15:38;4.7;;;2.8;;
68872;SDS011;55907;50.806;12.882;2022-09-24T15:18:40;5.1;;;3.3;;
68872;SDS011;55907;50.806;12.882;2022-09-24T15:21:42;4.1;;;3.1;;
68872;SDS011;55907;50.806;12.882;2022-09-24T15:24:43;4.8;;;3.0;;
68872;SDS011;55907;50.806;12.882;2022-09-24T15:27:44;4.0;;;2.9;;
68872;SDS011;55907;50.806;12.882;2022-09-24T15:30:46;7.3;;;3.2;;
68872;SDS011;55907;50.806;12.882;2022-09-24T15:33:47;4.5;;;3.6;;
68872;SDS011;55907;50.806;12.882;2022-09-24T15:36:49;5.7;;;3.9;;
68872;SDS011;55907;50.806;12.882;2022-09-24T15:39:50;5.3;;;3.1;;
68872;SDS011;55907;50.806;12.882;2022-09-24T15:42:51;4.8;;;2.8;;
68872;SDS011;55907;50.806;12.882;2022-09-24T15:45:53;6.0;;;3.0;;
68872;SDS011;55907;50.806;12.882;2022-09-24T15:48:54;5.0;;;3.4;;
68872;SDS011;55907;50.806;12.882;2022-09-24T15:52:00;6.2;;;3.9;;
68872;SDS011;55907;50.806;12.882;2022-09-24T15:54:58;4.3;;;2.7;;
68872;SDS011;55907;50.806;12.882;2022-09-24T15:57:59;3.7;;;2.9;;
68872;SDS011;55907;50.806;12.882;2022-09-24T16:01:00;4.0;;;3.2;;
68872;SDS011;55907;50.806;12.882;2022-09-24T16:04:01;4.7;;;3.4;;
68872;SDS011;55907;50.806;12.882;2022-09-24T16:07:03;5.1;;;3.5;;
68872;SDS011;55907;50.806;12.882;2022-09-24T16:10:05;6.3;;;4.1;;
68872;SDS011;55907;50.806;12.882;2022-09-24T16:13:06;5.1;;;3.4;;
68872;SDS011;55907;50.806;12.882;2022-09-24T16:16:07;5.5;;;2.9;;
68872;SDS011;55907;50.806;12.882;2022-09-24T16:19:09;4.2;;;3.3;;
68872;SDS011;55907;50.806;12.882;2022-09-24T16:22:10;6.5;;;4.0;;
68872;SDS011;55907;50.806;12.882;2022-09-24T16:25:12;5.8;;;3.9;;
68872;SDS011;55907;50.806;12.882;2022-09-24T16:28:13;10.1;;;6.2;;
68872;SDS011;55907;50.806;12.882;2022-09-24T16:31:14;5.4;;;4.3;;
68872;SDS011;55907;50.806;12.882;2022-09-24T16:34:18;4.2;;;3.6;;
68872;SDS011;55907;50.806;12.882;2022-09-24T16:37:17;5.2;;;4.2;;
68872;SDS011;55907;50.806;12.882;2022-09-24T16:40:19;5.5;;;4.4;;
68872;SDS011;55907;50.806;12.882;2022-09-24T16:43:20;5.9;;;4.3;;
68872;SDS011;55907;50.806;12.882;2022-09-24T16:46:22;5.0;;;3.8;;
68872;SDS011;55907;50.806;12.882;2022-09-24T16:49:23;6.4;;;3.6;;
68872;SDS011;55907;50.806;12.882;2022-09-24T16:52:25;4.8;;;3.3;;
68872;SDS011;55907;50.806;12.882;2022-09-24T16:55:26;4.6;;;3.4;;
68872;SDS011;55907;50.806;12.882;2022-09-24T16:58:28;6.3;;;3.7;;
68872;SDS011;55907;50.806;12.882;2022-09-24T17:01:29;5.2;;;3.0;;
68872;SDS011;55907;50.806;12.882;2022-09-24T17:04:31;6.3;;;3.1;;
68872;SDS011;55907;50.806;12.882;2022-09-24T17:07:32;4.5;;;3.5;;
68872;SDS011;55907;50.806;12.882;2022-09-24T17:10:34;5.3;;;3.8;;
68872;SDS011;55907;50.806;12.882;2022-09-24T17:13:35;4.5;;;3.1;;
68872;SDS011;55907;50.806;12.882;2022-09-24T17:16:37;5.9;;;3.7;;
68872;SDS011;55907;50.806;12.882;2022-09-24T17:19:38;5.5;;;3.5;;
68872;SDS011;55907;50.806;12.882;2022-09-24T17:22:39;4.8;;;3.5;;
68872;SDS011;55907;50.806;12.882;2022-09-24T17:25:41;3.7;;;3.3;;
68872;SDS011;55907;50.806;12.882;2022-09-24T17:28:43;6.7;;;4.2;;
68872;SDS011;55907;50.806;12.882;2022-09-24T17:31:44;6.3;;;4.3;;
68872;SDS011;55907;50.806;12.882;2022-09-24T17:34:45;5.1;;;3.9;;
68872;SDS011;55907;50.806;12.882;2022-09-24T17:37:47;4.4;;;3.9;;
68872;SDS011;55907;50.806;12.882;2022-09-24T17:40:52;6.0;;;4.0;;
68872;SDS011;55907;50.806;12.882;2022-09-24T17:43:50;6.2;;;4.3;;
68872;SDS011;55907;50.806;12.882;2022-09-24T17:46:51;5.6;;;4.3;;
68872;SDS011;55907;50.806;12.882;2022-09-24T17:49:53;6.0;;;4.1;;
68872;SDS011;55907;50.806;12.882;2022-09-24T17:52:54;6.5;;;4.6;;
68872;SDS011;55907;50.806;12.882;2022-09-24T17:55:56;6.7;;;4.6;;
68872;SDS011;55907;50.806;12.882;2022-09-24T17:58:57;5.9;;;4.2;;
68872;SDS011;55907;50.806;12.882;2022-09-24T18:01:59;6.6;;;4.0;;
68872;SDS011;55907;50.806;12.882;2022-09-24T18:05:00;5.2;;;3.9;;
68872;SDS011;55907;50.806;12.882;2022-09-24T18:08:02;5.3;;;3.9;;
68872;SDS011;55907;50.806;12.882;2022-09-24T18:11:04;6.9;;;4.2;;
68872;SDS011;55907;50.806;12.882;2022-09-24T18:14:04;8.8;;;6.3;;
68872;SDS011;55907;50.806;12.882;2022-09-24T18:17:06;10.1;;;8.0;;
68872;SDS011;55907;50.806;12.882;2022-09-24T18:20:08;7.4;;;4.7;;
68872;SDS011;55907;50.806;12.882;2022-09-24T18:23:09;10.2;;;6.5;;
68872;SDS011;55907;50.806;12.882;2022-09-24T18:26:11;10.7;;;7.7;;
68872;SDS011;55907;50.806;12.882;2022-09-24T18:29:13;8.5;;;5.8;;
68872;SDS011;55907;50.806;12.882;2022-09-24T18:32:13;6.8;;;4.5;;
68872;SDS011;55907;50.806;12.882;2022-09-24T18:35:15;7.0;;;4.7;;
68872;SDS011;55907;50.806;12.882;2022-09-24T18:38:16;5.8;;;4.6;;
68872;SDS011;55907;50.806;12.882;2022-09-24T18:41:19;11.3;;;7.2;;
68872;SDS011;55907;50.806;12.882;2022-09-24T18:44:20;9.4;;;6.8;;
68872;SDS011;55907;50.806;12.882;2022-09-24T18:47:21;9.3;;;7.1;;
68872;SDS011;55907;50.806;12.882;2022-09-24T18:50:22;23.4;;;15.6;;
68872;SDS011;55907;50.806;12.882;2022-09-24T18:53:24;32.5;;;18.8;;
68872;SDS011;55907;50.806;12.882;2022-09-24T18:56:26;11.1;;;7.6;;
68872;SDS011;55907;50.806;12.882;2022-09-24T18:59:27;9.7;;;6.9;;
68872;SDS011;55907;50.806;12.882;2022-09-24T19:02:28;10.0;;;6.6;;